createdAt,value
2023-06-17T00:00:41.245Z,93.37
2023-06-17T00:01:41.177Z,92.69
2023-06-17T00:02:41.316Z,92.90
2023-06-17T00:03:41.158Z,92.69
2023-06-17T00:04:41.165Z,93.31
2023-06-17T00:05:41.186Z,93.55
2023-06-17T00:06:41.138Z,93.45
2023-06-17T00:07:42.067Z,93.45
2023-06-17T00:08:41.143Z,93.25
2023-06-17T00:09:41.101Z,93.55
2023-06-17T00:10:41.135Z,93.76
2023-06-17T00:11:41.143Z,94.48
2023-06-17T00:12:41.095Z,94.48
2023-06-17T00:13:41.079Z,94.78
2023-06-17T00:14:41.114Z,94.58
2023-06-17T00:15:41.067Z,95.09
2023-06-17T00:16:41.099Z,94.27
2023-06-17T00:17:41.072Z,95.09
2023-06-17T00:18:41.086Z,95.19
2023-06-17T00:19:41.049Z,94.58
2023-06-17T00:20:41.094Z,94.89
2023-06-17T00:21:41.061Z,94.98
2023-06-17T00:22:41.015Z,94.82
2023-06-17T00:23:41.030Z,94.98
2023-06-17T00:24:41.029Z,95.13
2023-06-17T00:25:41.038Z,95.09
2023-06-17T00:26:40.988Z,95.34
2023-06-17T00:27:41.010Z,95.13
2023-06-17T00:28:40.985Z,95.13
2023-06-17T00:29:41.576Z,95.23
2023-06-17T00:30:40.952Z,95.34
2023-06-17T00:31:40.973Z,95.34
2023-06-17T00:32:42.262Z,95.34
2023-06-17T00:33:40.954Z,95.95
2023-06-17T00:34:40.918Z,96.10
2023-06-17T00:35:40.916Z,95.85
2023-06-17T00:36:40.909Z,96.15
2023-06-17T00:37:40.923Z,95.48
2023-06-17T00:38:40.914Z,95.28
2023-06-17T00:39:40.890Z,95.18
2023-06-17T00:40:40.902Z,95.18
2023-06-17T00:41:40.894Z,95.07
2023-06-17T00:42:40.854Z,95.43
2023-06-17T00:43:40.836Z,95.18
2023-06-17T00:44:40.848Z,94.92
2023-06-17T00:45:40.894Z,96.10
2023-06-17T00:46:40.934Z,95.59
2023-06-17T00:47:40.875Z,96.20
2023-06-17T00:48:40.822Z,96.20
2023-06-17T00:49:40.822Z,95.63
2023-06-17T00:50:40.869Z,96.14
2023-06-17T00:51:40.801Z,96.04
2023-06-17T00:52:42.622Z,95.73
2023-06-17T00:53:41.786Z,95.94
2023-06-17T00:54:40.801Z,96.45
2023-06-17T00:55:40.773Z,96.45
2023-06-17T00:56:40.740Z,96.14
2023-06-17T00:57:40.740Z,96.04
2023-06-17T00:58:40.756Z,96.75
2023-06-17T00:59:41.758Z,96.66
2023-06-17T01:00:41.558Z,96.75
2023-06-17T01:01:40.714Z,96.75
2023-06-17T01:02:40.776Z,96.45
2023-06-17T01:03:40.777Z,96.29
2023-06-17T01:04:40.727Z,96.75
2023-06-17T01:05:41.457Z,96.34
2023-06-17T01:06:41.456Z,96.34
2023-06-17T01:07:40.678Z,96.75
2023-06-17T01:08:40.686Z,97.11
2023-06-17T01:09:40.646Z,97.06
2023-06-17T01:10:40.658Z,97.06
2023-06-17T01:11:40.656Z,97.57
2023-06-17T01:12:40.635Z,97.06
2023-06-17T01:13:40.624Z,96.96
2023-06-17T01:14:41.646Z,97.47
2023-06-17T01:15:40.640Z,97.98
2023-06-17T01:16:40.637Z,97.06
2023-06-17T01:17:40.642Z,96.86
2023-06-17T01:18:40.635Z,96.96
2023-06-17T01:19:40.575Z,97.78
2023-06-17T01:20:40.631Z,96.86
2023-06-17T01:21:40.609Z,97.57
2023-06-17T01:22:40.593Z,96.96
2023-06-17T01:23:40.543Z,96.96
2023-06-17T01:24:40.572Z,97.00
2023-06-17T01:25:40.557Z,97.11
2023-06-17T01:26:40.579Z,97.41
2023-06-17T01:27:41.046Z,96.91
2023-06-17T01:28:40.530Z,97.00
2023-06-17T01:29:40.550Z,97.11
2023-06-17T01:30:40.513Z,97.11
2023-06-17T01:31:40.502Z,97.82
2023-06-17T01:32:40.519Z,97.21
2023-06-17T01:33:40.487Z,97.11
2023-06-17T01:34:40.484Z,97.31
2023-06-17T01:35:41.497Z,97.00
2023-06-17T01:36:40.548Z,97.82
2023-06-17T01:37:40.455Z,97.92
2023-06-17T01:38:40.464Z,97.92
2023-06-17T01:39:40.516Z,98.03
2023-06-17T01:40:40.479Z,98.03
2023-06-17T01:41:40.405Z,97.62
2023-06-17T01:42:40.422Z,97.72
2023-06-17T01:43:40.442Z,97.31
2023-06-17T01:44:40.437Z,96.95
2023-06-17T01:45:40.427Z,96.95
2023-06-17T01:46:40.397Z,97.56
2023-06-17T01:47:40.437Z,97.56
2023-06-17T01:48:40.385Z,97.97
2023-06-17T01:49:40.367Z,97.05
2023-06-17T01:50:40.355Z,97.77
2023-06-17T01:51:40.378Z,97.36
2023-06-17T01:52:40.350Z,97.66
2023-06-17T01:53:40.352Z,97.87
2023-06-17T01:54:40.340Z,98.49
2023-06-17T01:55:40.302Z,97.97
2023-06-17T01:56:40.346Z,98.07
2023-06-17T01:57:40.288Z,97.77
2023-06-17T01:58:40.284Z,98.18
2023-06-17T01:59:40.285Z,97.87
2023-06-17T02:00:40.291Z,98.02
2023-06-17T02:01:40.288Z,97.77
2023-06-17T02:02:40.339Z,97.91
2023-06-17T02:03:40.348Z,97.91
2023-06-17T02:04:40.288Z,97.91
2023-06-17T02:05:40.229Z,98.12
2023-06-17T02:06:40.233Z,98.02
2023-06-17T02:07:40.259Z,98.74
2023-06-17T02:08:40.244Z,98.38
2023-06-17T02:09:41.879Z,98.79
2023-06-17T02:10:40.205Z,98.90
2023-06-17T02:11:41.066Z,99.10
2023-06-17T02:12:40.195Z,98.99
2023-06-17T02:13:40.186Z,98.99
2023-06-17T02:14:40.173Z,98.99
2023-06-17T02:15:40.221Z,98.99
2023-06-17T02:16:40.195Z,98.69
2023-06-17T02:17:40.208Z,98.74
2023-06-17T02:18:40.165Z,98.53
2023-06-17T02:19:40.159Z,98.43
2023-06-17T02:20:40.137Z,98.07
2023-06-17T02:21:40.139Z,98.43
2023-06-17T02:22:40.099Z,98.53
2023-06-17T02:23:40.512Z,98.63
2023-06-17T02:24:40.176Z,98.83
2023-06-17T02:25:41.220Z,98.74
2023-06-17T02:26:40.070Z,98.63
2023-06-17T02:27:40.072Z,98.58
2023-06-17T02:28:40.065Z,98.16
2023-06-17T02:29:41.575Z,98.37
2023-06-17T02:30:40.049Z,98.68
2023-06-17T02:31:40.119Z,97.96
2023-06-17T02:32:40.086Z,98.27
2023-06-17T02:33:40.006Z,98.27
2023-06-17T02:34:40.035Z,98.99
2023-06-17T02:35:40.018Z,99.09
2023-06-17T02:36:39.993Z,98.88
2023-06-17T02:37:40.559Z,98.78
2023-06-17T02:38:39.962Z,98.78
2023-06-17T02:39:40.546Z,98.88
2023-06-17T02:40:40.018Z,98.47
2023-06-17T02:41:39.950Z,99.03
2023-06-17T02:42:39.958Z,98.99
2023-06-17T02:43:39.951Z,99.24
2023-06-17T02:44:39.926Z,99.24
2023-06-17T02:45:39.945Z,99.44
2023-06-17T02:46:39.991Z,99.34
2023-06-17T02:47:40.532Z,99.13
2023-06-17T02:48:39.887Z,99.03
2023-06-17T02:49:39.890Z,99.03
2023-06-17T02:50:39.888Z,99.24
2023-06-17T02:51:39.913Z,99.13
2023-06-17T02:52:39.876Z,99.24
2023-06-17T02:53:39.848Z,99.44
2023-06-17T02:54:39.853Z,99.54
2023-06-17T02:55:39.860Z,99.34
2023-06-17T02:56:39.832Z,99.34
2023-06-17T02:57:39.861Z,99.24
2023-06-17T02:58:39.815Z,99.65
2023-06-17T02:59:39.968Z,99.24
2023-06-17T03:00:39.859Z,99.54
2023-06-17T03:01:39.776Z,99.03
2023-06-17T03:02:39.892Z,98.97
2023-06-17T03:03:39.756Z,99.03
2023-06-17T03:04:39.778Z,99.24
2023-06-17T03:05:39.847Z,99.08
2023-06-17T03:06:39.746Z,99.18
2023-06-17T03:07:39.740Z,99.08
2023-06-17T03:08:39.751Z,99.90
2023-06-17T03:09:40.400Z,99.24
2023-06-17T03:10:39.732Z,99.59
2023-06-17T03:11:39.706Z,99.28
2023-06-17T03:12:39.713Z,99.08
2023-06-17T03:13:39.701Z,99.28
2023-06-17T03:14:39.747Z,98.87
2023-06-17T03:15:39.687Z,98.57
2023-06-17T03:16:40.583Z,98.77
2023-06-17T03:17:39.716Z,98.97
2023-06-17T03:18:39.677Z,98.97
2023-06-17T03:19:39.677Z,98.97
2023-06-17T03:20:39.674Z,99.18
2023-06-17T03:21:39.678Z,99.34
2023-06-17T03:22:39.658Z,99.28
2023-06-17T03:23:39.647Z,99.28
2023-06-17T03:24:39.767Z,99.13
2023-06-17T03:25:39.625Z,98.83
2023-06-17T03:26:39.648Z,99.03
2023-06-17T03:27:39.616Z,98.88
2023-06-17T03:28:39.620Z,98.47
2023-06-17T03:29:39.607Z,97.96
2023-06-17T03:30:39.617Z,98.12
2023-06-17T03:31:39.612Z,97.71
2023-06-17T03:32:39.577Z,97.30
2023-06-17T03:33:39.587Z,96.89
2023-06-17T03:34:40.084Z,97.14
2023-06-17T03:35:39.582Z,96.73
2023-06-17T03:36:39.562Z,96.63
2023-06-17T03:37:39.541Z,96.69
2023-06-17T03:38:39.510Z,96.79
2023-06-17T03:39:39.513Z,96.13
2023-06-17T03:40:39.508Z,96.23
2023-06-17T03:41:39.545Z,95.21
2023-06-17T03:42:39.503Z,94.80
2023-06-17T03:43:39.481Z,94.39
2023-06-17T03:44:39.458Z,94.43
2023-06-17T03:45:39.461Z,94.64
2023-06-17T03:46:39.481Z,94.78
2023-06-17T03:47:39.480Z,95.09
2023-06-17T04:03:46.559Z,91.20
2023-06-17T04:04:46.353Z,91.41
2023-06-17T04:05:46.365Z,90.45
2023-06-17T04:06:47.528Z,89.49
2023-06-17T04:07:47.498Z,88.32
2023-06-17T04:08:47.495Z,87.67
2023-06-17T04:10:01.751Z,86.92
2023-06-17T04:10:48.454Z,86.06
2023-06-17T04:11:47.480Z,86.13
2023-06-17T04:12:47.461Z,84.56
2023-06-17T04:13:47.433Z,83.76
2023-06-17T04:14:47.447Z,83.22
2023-06-17T04:15:47.562Z,82.47
2023-06-17T04:16:51.604Z,80.50
2023-06-17T04:17:47.514Z,80.36
2023-06-17T04:18:47.413Z,80.22
2023-06-17T04:19:47.412Z,79.21
2023-06-17T04:20:47.383Z,79.14
2023-06-17T04:21:47.432Z,79.72
2023-06-17T04:22:47.408Z,78.36
2023-06-17T04:23:47.359Z,77.92
2023-06-17T04:24:47.375Z,77.72
2023-06-17T04:25:47.341Z,77.17
2023-06-17T04:26:47.336Z,77.28
2023-06-17T04:27:47.333Z,76.56
2023-06-17T04:28:47.347Z,76.67
2023-06-17T04:29:47.334Z,76.23
2023-06-17T04:30:47.329Z,75.38
2023-06-17T04:31:47.389Z,75.28
2023-06-17T04:32:48.652Z,75.04
2023-06-17T04:33:47.308Z,74.54
2023-06-17T04:34:47.310Z,74.84
2023-06-17T04:35:47.308Z,73.99
2023-06-17T04:36:47.295Z,73.59
2023-06-17T04:37:47.285Z,73.96
2023-06-17T04:38:47.261Z,73.69
2023-06-17T04:39:47.306Z,73.99
2023-06-17T04:40:47.290Z,74.43
2023-06-17T04:41:47.362Z,74.63
2023-06-17T04:42:47.261Z,74.84
2023-06-17T04:43:48.071Z,74.03
2023-06-17T04:44:47.214Z,75.34
2023-06-17T04:45:47.191Z,74.03
2023-06-17T04:46:47.270Z,74.63
2023-06-17T04:47:47.197Z,74.40
2023-06-17T04:48:47.183Z,74.87
2023-06-17T04:49:48.081Z,74.63
2023-06-17T04:50:47.188Z,75.04
2023-06-17T04:51:47.205Z,74.67
2023-06-17T04:52:47.184Z,74.74
2023-06-17T04:53:47.176Z,75.21
2023-06-17T04:54:47.130Z,75.92
2023-06-17T04:55:47.117Z,76.83
2023-06-17T04:56:47.119Z,76.39
2023-06-17T04:57:47.118Z,75.65
2023-06-17T04:58:47.131Z,74.60
2023-06-17T04:59:47.125Z,75.24
2023-06-17T05:00:47.160Z,76.90
2023-06-17T05:01:47.105Z,79.92
2023-06-17T05:02:47.126Z,80.57
2023-06-17T05:03:47.150Z,79.92
2023-06-17T05:04:47.064Z,79.47
2023-06-17T05:05:47.054Z,79.00
2023-06-17T05:06:47.050Z,78.19
2023-06-17T05:07:47.021Z,76.19
2023-06-17T05:08:47.048Z,76.83
2023-06-17T05:09:46.999Z,76.66
2023-06-17T05:10:47.032Z,74.53
2023-06-17T05:11:47.018Z,73.79
2023-06-17T05:12:47.040Z,72.78
2023-06-17T05:13:47.015Z,73.08
2023-06-17T05:14:46.997Z,72.41
2023-06-17T05:15:46.996Z,71.60
2023-06-17T05:16:47.013Z,71.40
2023-06-17T05:17:47.022Z,71.26
2023-06-17T05:18:46.968Z,71.80
2023-06-17T05:19:46.968Z,72.00
2023-06-17T05:20:46.959Z,71.26
2023-06-17T05:21:46.936Z,71.57
2023-06-17T05:22:47.144Z,71.67
2023-06-17T05:23:46.986Z,73.15
2023-06-17T05:24:46.952Z,73.96
2023-06-17T05:25:46.891Z,74.93
2023-06-17T05:26:46.917Z,73.82
2023-06-17T05:27:46.874Z,71.23
2023-06-17T05:28:46.892Z,71.26
2023-06-17T05:29:46.847Z,73.08
2023-06-17T05:30:46.893Z,74.93
2023-06-17T05:31:46.833Z,73.01
2023-06-17T05:32:46.917Z,73.48
2023-06-17T05:33:46.847Z,71.30
2023-06-17T05:34:46.826Z,70.86
2023-06-17T05:35:46.816Z,70.19
2023-06-17T05:36:46.830Z,70.73
2023-06-17T05:37:46.833Z,71.50
2023-06-17T05:38:46.822Z,71.44
2023-06-17T05:39:46.787Z,71.73
2023-06-17T05:40:46.792Z,71.00
2023-06-17T05:41:46.783Z,72.54
2023-06-17T05:42:46.791Z,71.80
2023-06-17T05:43:46.753Z,71.06
2023-06-17T05:44:47.428Z,70.59
2023-06-17T05:45:46.753Z,69.35
2023-06-17T05:46:46.794Z,68.85
2023-06-17T05:47:46.763Z,68.72
2023-06-17T05:48:46.746Z,67.98
2023-06-17T05:49:46.725Z,67.82
2023-06-17T05:50:46.709Z,69.49
2023-06-17T05:51:46.736Z,70.63
2023-06-17T05:52:46.707Z,70.26
2023-06-17T05:53:47.140Z,69.25
2023-06-17T05:54:47.676Z,68.59
2023-06-17T05:55:46.668Z,68.88
2023-06-17T05:56:46.673Z,68.35
2023-06-17T05:57:46.674Z,68.49
2023-06-17T05:58:46.693Z,69.65
2023-06-17T05:59:46.653Z,68.88
2023-06-17T06:00:46.662Z,68.35
2023-06-17T06:01:46.696Z,67.52
2023-06-17T06:02:46.731Z,67.32
2023-06-17T06:03:46.677Z,67.05
2023-06-17T06:04:46.649Z,66.02
2023-06-17T06:05:46.625Z,66.25
2023-06-17T06:06:46.623Z,66.75
2023-06-17T06:07:46.604Z,66.15
2023-06-17T06:08:46.593Z,66.75
2023-06-17T06:09:46.628Z,67.22
2023-06-17T06:10:46.669Z,64.92
2023-06-17T06:11:46.592Z,63.06
2023-06-17T06:12:46.577Z,63.19
2023-06-17T06:13:47.484Z,63.42
2023-06-17T06:14:47.292Z,67.78
2023-06-17T06:15:47.556Z,70.03
2023-06-17T06:16:46.688Z,68.69
2023-06-17T06:17:47.154Z,67.29
2023-06-17T06:18:46.534Z,67.02
2023-06-17T06:19:46.541Z,64.72
2023-06-17T06:20:47.205Z,62.34
2023-06-17T06:21:46.491Z,63.35
2023-06-17T06:22:47.477Z,65.69
2023-06-17T06:23:46.460Z,63.95
2023-06-17T06:24:46.478Z,63.39
2023-06-17T06:25:46.467Z,63.68
2023-06-17T06:26:47.501Z,64.62
2023-06-17T06:27:46.441Z,65.65
2023-06-17T06:28:46.442Z,64.95
2023-06-17T06:29:46.455Z,63.59
2023-06-17T06:30:46.408Z,62.89
2023-06-17T06:31:46.475Z,64.09
2023-06-17T06:32:46.452Z,65.85
2023-06-17T06:33:46.415Z,65.39
2023-06-17T06:34:46.422Z,64.22
2023-06-17T06:35:46.383Z,62.73
2023-06-17T06:36:46.365Z,61.27
2023-06-17T06:37:46.412Z,61.30
2023-06-17T06:38:46.379Z,61.83
2023-06-17T06:39:46.387Z,64.75
2023-06-17T06:40:46.358Z,64.32
2023-06-17T06:41:46.351Z,64.03
2023-06-17T06:42:46.336Z,65.05
2023-06-17T06:43:46.370Z,65.05
2023-06-17T06:44:46.348Z,66.02
2023-06-17T06:45:46.373Z,65.48
2023-06-17T06:46:46.290Z,63.92
2023-06-17T06:47:46.336Z,62.18
2023-06-17T06:48:46.301Z,62.10
2023-06-17T06:49:46.302Z,62.67
2023-06-17T06:50:46.283Z,61.15
2023-06-17T06:51:46.289Z,59.94
2023-06-17T06:52:46.258Z,57.92
2023-06-17T06:53:46.300Z,57.52
2023-06-17T06:54:46.258Z,58.48
2023-06-17T06:55:46.223Z,57.76
2023-06-17T06:56:46.961Z,58.70
2023-06-17T06:57:46.958Z,60.05
2023-06-17T06:58:46.248Z,60.15
2023-06-17T06:59:46.233Z,60.09
2023-06-17T07:00:46.217Z,58.18
2023-06-17T07:01:46.207Z,57.69
2023-06-17T07:02:46.218Z,57.39
2023-06-17T07:03:46.179Z,58.76
2023-06-17T07:04:46.219Z,58.61
2023-06-17T07:05:46.191Z,57.04
2023-06-17T07:06:46.184Z,56.51
2023-06-17T07:07:46.168Z,55.76
2023-06-17T07:08:46.147Z,55.83
2023-06-17T07:09:46.153Z,56.21
2023-06-17T07:10:46.149Z,57.51
2023-06-17T07:11:46.121Z,56.09
2023-06-17T07:12:46.101Z,56.09
2023-06-17T07:13:46.128Z,55.44
2023-06-17T07:14:46.123Z,54.64
2023-06-17T07:15:46.137Z,56.41
2023-06-17T07:16:46.127Z,57.76
2023-06-17T07:17:46.105Z,58.22
2023-06-17T07:18:46.111Z,58.04
2023-06-17T07:19:46.067Z,58.61
2023-06-17T07:20:46.080Z,58.18
2023-06-17T07:21:46.073Z,57.24
2023-06-17T07:22:46.091Z,56.14
2023-06-17T07:23:46.029Z,57.56
2023-06-17T07:24:46.051Z,56.49
2023-06-17T07:25:46.047Z,54.99
2023-06-17T07:26:46.030Z,53.75
2023-06-17T07:27:46.007Z,52.81
2023-06-17T07:28:46.008Z,51.70
2023-06-17T07:29:47.005Z,51.57
2023-06-17T07:30:46.046Z,51.35
2023-06-17T07:31:46.120Z,51.35
2023-06-17T07:32:45.993Z,53.06
2023-06-17T07:33:45.963Z,52.59
2023-06-17T07:34:45.964Z,55.59
2023-06-17T07:35:45.992Z,57.49
2023-06-17T07:36:45.980Z,57.31
2023-06-17T07:37:45.965Z,56.68
2023-06-17T07:38:45.942Z,56.61
2023-06-17T07:39:45.922Z,54.32
2023-06-17T07:40:45.932Z,53.67
2023-06-17T07:41:45.929Z,51.40
2023-06-17T07:42:45.958Z,49.60
2023-06-17T07:43:45.937Z,50.81
2023-06-17T07:44:45.948Z,51.05
2023-06-17T07:45:45.888Z,50.13
2023-06-17T07:46:45.945Z,50.43
2023-06-17T07:47:46.021Z,51.60
2023-06-17T07:48:45.872Z,51.67
2023-06-17T07:49:45.857Z,49.62
2023-06-17T07:50:45.870Z,49.94
2023-06-17T07:51:45.871Z,51.79
2023-06-17T07:52:45.850Z,50.61
2023-06-17T07:53:45.865Z,49.74
2023-06-17T07:54:45.834Z,47.94
2023-06-17T07:55:45.823Z,47.25
2023-06-17T07:56:45.836Z,47.43
2023-06-17T07:57:46.642Z,46.84
2023-06-17T07:58:45.817Z,47.38
2023-06-17T07:59:46.701Z,47.97
2023-06-17T08:00:45.808Z,47.35
2023-06-17T08:01:45.843Z,47.23
2023-06-17T08:02:45.870Z,48.11
2023-06-17T08:03:45.953Z,49.81
2023-06-17T08:04:45.800Z,51.65
2023-06-17T08:05:45.783Z,50.83
2023-06-17T08:06:45.777Z,49.82
2023-06-17T08:07:45.792Z,47.75
2023-06-17T08:08:45.752Z,46.64
2023-06-17T08:09:45.711Z,47.63
2023-06-17T08:10:45.756Z,46.50
2023-06-17T08:11:45.827Z,45.67
2023-06-17T08:12:45.741Z,45.59
2023-06-17T08:13:45.736Z,46.04
2023-06-17T08:14:46.652Z,47.38
2023-06-17T08:15:45.708Z,46.59
2023-06-17T08:16:45.702Z,47.35
2023-06-17T08:17:45.738Z,46.72
2023-06-17T08:18:45.661Z,46.96
2023-06-17T08:19:45.652Z,46.64
2023-06-17T08:20:45.750Z,46.22
2023-06-17T08:21:45.655Z,46.28
2023-06-17T08:22:45.656Z,45.63
2023-06-17T08:23:46.175Z,46.08
2023-06-17T08:24:46.653Z,45.27
2023-06-17T08:25:45.608Z,44.26
2023-06-17T08:26:45.671Z,44.48
2023-06-17T08:27:45.620Z,41.25
2023-06-17T08:28:45.608Z,40.19
2023-06-17T08:29:46.622Z,39.92
2023-06-17T08:30:45.582Z,40.21
2023-06-17T08:31:45.605Z,41.06
2023-06-17T08:32:45.616Z,40.55
2023-06-17T08:33:45.601Z,39.26
2023-06-17T08:34:45.597Z,39.86
2023-06-17T08:35:46.193Z,39.17
2023-06-17T08:36:45.531Z,39.50
2023-06-17T08:37:45.587Z,38.11
2023-06-17T08:38:45.544Z,37.99
2023-06-17T08:39:45.631Z,37.98
2023-06-17T08:40:45.513Z,36.68
2023-06-17T08:41:45.513Z,38.15
2023-06-17T08:42:45.503Z,37.29
2023-06-17T08:43:45.528Z,37.01
2023-06-17T08:44:45.512Z,38.03
2023-06-17T08:45:46.193Z,38.74
2023-06-17T08:46:45.515Z,38.64
2023-06-17T08:47:45.563Z,38.84
2023-06-17T08:48:45.461Z,38.72
2023-06-17T08:49:45.488Z,38.60
2023-06-17T08:50:45.486Z,38.70
2023-06-17T08:51:45.454Z,39.00
2023-06-17T08:52:45.461Z,38.40
2023-06-17T08:53:45.421Z,37.72
2023-06-17T08:54:45.441Z,37.62
2023-06-17T08:55:45.419Z,38.40
2023-06-17T08:56:45.420Z,38.09
2023-06-17T08:57:45.419Z,36.99
2023-06-17T08:58:45.386Z,37.48
2023-06-17T08:59:45.418Z,36.90
2023-06-17T09:00:45.407Z,36.19
2023-06-17T09:01:45.420Z,36.78
2023-06-17T09:02:45.411Z,36.94
2023-06-17T09:03:45.360Z,36.41
2023-06-17T09:04:45.370Z,36.41
2023-06-17T09:05:45.341Z,36.33
2023-06-17T09:06:45.344Z,35.94
2023-06-17T09:07:45.367Z,36.59
2023-06-17T09:08:45.396Z,37.18
2023-06-17T09:09:45.311Z,36.20
2023-06-17T09:10:45.321Z,36.43
2023-06-17T09:11:45.312Z,36.45
2023-06-17T09:12:45.315Z,36.74
2023-06-17T09:13:46.278Z,36.65
2023-06-17T09:14:45.301Z,36.37
2023-06-17T09:15:45.294Z,36.66
2023-06-17T09:16:46.858Z,37.09
2023-06-17T09:17:45.319Z,36.91
2023-06-17T09:18:46.120Z,38.07
2023-06-17T09:19:45.250Z,37.78
2023-06-17T09:20:45.210Z,37.48
2023-06-17T09:21:46.293Z,37.27
2023-06-17T09:22:46.123Z,36.55
2023-06-17T09:23:45.206Z,36.35
2023-06-17T09:24:45.207Z,36.86
2023-06-17T09:25:45.231Z,36.74
2023-06-17T09:26:45.334Z,36.16
2023-06-17T09:27:50.620Z,36.66
2023-06-17T09:28:46.221Z,36.09
2023-06-17T09:29:45.702Z,36.30
2023-06-17T09:30:45.613Z,37.03
2023-06-17T09:31:45.206Z,36.22
2023-06-17T09:32:45.210Z,36.51
2023-06-17T09:33:45.155Z,35.78
2023-06-17T09:34:45.166Z,35.16
2023-06-17T09:35:45.149Z,34.98
2023-06-17T09:36:45.143Z,36.40
2023-06-17T09:37:57.997Z,37.32
2023-06-17T09:38:46.231Z,38.45
2023-06-17T09:39:45.141Z,39.03
2023-06-17T09:40:45.117Z,39.34
2023-06-17T09:41:45.146Z,38.28
2023-06-17T09:42:45.136Z,36.93
2023-06-17T09:43:45.140Z,36.70
2023-06-17T09:44:45.090Z,35.88
2023-06-17T09:45:45.131Z,35.68
2023-06-17T09:46:45.104Z,35.37
2023-06-17T09:47:45.145Z,35.16
2023-06-17T09:48:45.087Z,34.98
2023-06-17T09:49:45.047Z,34.88
2023-06-17T09:50:45.706Z,35.37
2023-06-17T09:51:45.041Z,34.49
2023-06-17T09:52:45.036Z,34.00
2023-06-17T09:53:45.627Z,34.01
2023-06-17T09:54:45.044Z,34.70
2023-06-17T09:55:45.020Z,34.41
2023-06-17T09:56:45.155Z,34.00
2023-06-17T09:57:45.054Z,34.15
2023-06-17T09:58:45.090Z,36.84
2023-06-17T09:59:45.047Z,36.99
2023-06-17T10:00:44.992Z,36.16
2023-06-17T10:01:44.978Z,36.13
2023-06-17T10:02:45.139Z,35.34
2023-06-17T10:03:45.100Z,36.65
2023-06-17T10:04:45.052Z,36.60
2023-06-17T10:05:44.997Z,35.50
2023-06-17T10:06:44.990Z,34.23
2023-06-17T10:07:44.999Z,35.02
2023-06-17T10:08:45.741Z,34.16
2023-06-17T10:09:44.941Z,34.44
2023-06-17T10:10:44.921Z,34.52
2023-06-17T10:11:44.963Z,34.01
2023-06-17T10:12:45.005Z,33.84
2023-06-17T10:13:44.921Z,34.44
2023-06-17T10:14:44.894Z,35.83
2023-06-17T10:15:44.873Z,35.80
2023-06-17T10:16:45.450Z,36.20
2023-06-17T10:17:45.970Z,35.59
2023-06-17T10:18:44.918Z,35.20
2023-06-17T10:19:44.874Z,35.20
2023-06-17T10:20:44.892Z,35.20
2023-06-17T10:21:44.847Z,34.08
2023-06-17T10:22:44.866Z,34.66
2023-06-17T10:23:44.866Z,33.97
2023-06-17T10:24:45.014Z,33.75
2023-06-17T10:25:44.900Z,33.34
2023-06-17T10:26:44.855Z,33.82
2023-06-17T10:27:44.822Z,33.02
2023-06-17T10:28:44.849Z,33.85
2023-06-17T10:29:44.839Z,33.87
2023-06-17T10:30:44.814Z,34.42
2023-06-17T10:31:44.806Z,33.56
2023-06-17T10:32:44.831Z,34.77
2023-06-17T10:33:44.820Z,35.38
2023-06-17T10:34:44.785Z,35.57
2023-06-17T10:35:45.781Z,36.26
2023-06-17T10:36:44.749Z,36.24
2023-06-17T10:37:44.749Z,35.55
2023-06-17T10:38:44.745Z,35.24
2023-06-17T10:39:44.739Z,34.16
2023-06-17T10:40:44.840Z,35.03
2023-06-17T10:41:44.721Z,34.03
2023-06-17T10:42:44.777Z,34.52
2023-06-17T10:43:45.557Z,34.42
2023-06-17T10:44:44.732Z,34.15
2023-06-17T10:45:44.817Z,35.05
2023-06-17T10:46:44.694Z,35.42
2023-06-17T10:47:44.759Z,33.95
2023-06-17T10:48:44.697Z,34.41
2023-06-17T10:49:44.638Z,34.78
2023-06-17T10:50:44.676Z,33.90
2023-06-17T10:51:57.404Z,33.61
2023-06-17T10:52:46.657Z,33.29
2023-06-17T10:53:44.794Z,33.77
2023-06-17T10:54:44.671Z,33.61
2023-06-17T10:55:45.350Z,33.22
2023-06-17T10:56:45.326Z,33.29
2023-06-17T10:57:44.629Z,33.31
2023-06-17T10:58:44.678Z,33.20
2023-06-17T10:59:44.606Z,33.77
2023-06-17T11:00:44.611Z,33.59
2023-06-17T11:01:44.580Z,34.31
2023-06-17T11:02:44.630Z,35.34
2023-06-17T11:03:44.645Z,35.26
2023-06-17T11:04:44.558Z,35.46
2023-06-17T11:05:44.569Z,35.47
2023-06-17T11:06:44.552Z,35.66
2023-06-17T11:07:44.581Z,35.24
2023-06-17T11:08:44.556Z,35.62
2023-06-17T11:09:44.558Z,35.23
2023-06-17T11:10:45.721Z,35.03
2023-06-17T11:11:45.320Z,35.42
2023-06-17T11:12:45.290Z,35.50
2023-06-17T11:13:44.594Z,35.02
2023-06-17T11:14:44.513Z,35.70
2023-06-17T11:15:44.574Z,34.90
2023-06-17T11:16:44.500Z,35.42
2023-06-17T11:17:44.611Z,36.22
2023-06-17T11:18:44.498Z,36.15
2023-06-17T11:19:44.496Z,36.95
2023-06-17T11:20:44.543Z,35.74
2023-06-17T11:21:44.451Z,37.02
2023-06-17T11:22:44.472Z,37.08
2023-06-17T11:23:44.535Z,35.85
2023-06-17T11:24:44.464Z,35.75
2023-06-17T11:25:46.054Z,35.46
2023-06-17T11:26:44.489Z,35.75
2023-06-17T11:27:44.394Z,36.55
2023-06-17T11:28:44.420Z,36.85
2023-06-17T11:29:44.410Z,36.13
2023-06-17T11:30:44.780Z,36.03
2023-06-17T11:31:44.383Z,35.74
2023-06-17T11:32:44.508Z,35.60
2023-06-17T11:33:44.389Z,35.50
2023-06-17T11:35:16.287Z,36.19
2023-06-17T11:36:16.827Z,35.77
2023-06-17T11:36:44.420Z,37.40
2023-06-17T11:37:44.389Z,37.41
2023-06-17T11:38:44.390Z,37.22
2023-06-17T11:39:44.363Z,37.35
2023-06-17T11:40:44.336Z,37.47
2023-06-17T11:41:45.313Z,37.27
2023-06-17T11:42:44.346Z,37.15
2023-06-17T11:43:44.434Z,36.33
2023-06-17T11:44:44.364Z,37.12
2023-06-17T11:45:44.341Z,36.43
2023-06-17T11:46:44.435Z,35.72
2023-06-17T11:47:44.336Z,36.08
2023-06-17T11:48:44.360Z,35.87
2023-06-17T11:49:44.303Z,36.03
2023-06-17T11:50:44.289Z,35.62
2023-06-17T11:51:44.264Z,33.94
2023-06-17T11:52:44.314Z,34.33
2023-06-17T11:53:44.267Z,35.11
2023-06-17T11:54:44.229Z,35.21
2023-06-17T11:55:44.238Z,35.06
2023-06-17T11:56:44.253Z,36.32
2023-06-17T11:57:44.283Z,37.02
2023-06-17T11:58:44.304Z,37.32
2023-06-17T11:59:44.236Z,36.80
2023-06-17T12:00:45.138Z,36.49
2023-06-17T12:01:44.277Z,37.10
2023-06-17T12:02:44.415Z,37.01
2023-06-17T12:03:44.238Z,36.10
2023-06-17T12:04:44.206Z,35.51
2023-06-17T12:05:44.214Z,35.80
2023-06-17T12:06:44.248Z,36.41
2023-06-17T12:07:44.166Z,36.92
2023-06-17T12:08:44.154Z,36.96
2023-06-17T12:09:44.177Z,38.08
2023-06-17T12:10:44.195Z,38.08
2023-06-17T12:11:44.162Z,37.21
2023-06-17T12:12:44.140Z,38.89
2023-06-17T12:13:44.086Z,38.26
2023-06-17T12:14:44.116Z,37.05
2023-06-17T12:15:44.102Z,36.98
2023-06-17T12:16:45.900Z,36.58
2023-06-17T12:17:44.210Z,37.09
2023-06-17T12:18:44.088Z,37.60
2023-06-17T12:19:44.079Z,37.80
2023-06-17T12:20:44.130Z,37.80
2023-06-17T12:21:44.816Z,37.03
2023-06-17T12:22:44.093Z,38.02
2023-06-17T12:23:44.649Z,38.51
2023-06-17T12:24:45.153Z,39.42
2023-06-17T12:25:44.095Z,38.61
2023-06-17T12:26:44.049Z,39.03
2023-06-17T12:27:44.175Z,39.40
2023-06-17T12:29:25.634Z,38.89
2023-06-17T12:29:44.984Z,38.77
2023-06-17T12:30:43.950Z,36.86
2023-06-17T12:31:44.028Z,36.23
2023-06-17T12:32:44.317Z,36.43
2023-06-17T12:33:44.038Z,36.43
2023-06-17T12:34:43.994Z,36.65
2023-06-17T12:35:43.983Z,38.02
2023-06-17T12:36:43.981Z,37.30
2023-06-17T12:37:43.953Z,36.99
2023-06-17T12:38:43.983Z,36.67
2023-06-17T12:39:44.889Z,36.79
2023-06-17T12:40:43.893Z,37.12
2023-06-17T12:41:43.937Z,36.55
2023-06-17T12:42:43.925Z,36.96
2023-06-17T12:43:43.907Z,37.26
2023-06-17T12:44:43.872Z,37.34
2023-06-17T12:45:43.906Z,37.45
2023-06-17T12:46:43.914Z,38.02
2023-06-17T12:47:43.921Z,36.35
2023-06-17T12:48:43.876Z,36.63
2023-06-17T12:49:43.873Z,36.04
2023-06-17T12:50:44.710Z,35.86
2023-06-17T12:51:43.847Z,35.94
2023-06-17T12:52:43.853Z,36.41
2023-06-17T12:53:43.898Z,35.41
2023-06-17T12:54:43.822Z,35.80
2023-06-17T12:55:44.370Z,34.41
2023-06-17T12:56:43.817Z,35.43
2023-06-17T12:57:43.796Z,35.30
2023-06-17T12:58:43.868Z,35.78
2023-06-17T12:59:43.799Z,35.66
2023-06-17T13:00:43.767Z,35.46
2023-06-17T13:01:43.793Z,34.28
2023-06-17T13:02:43.879Z,34.06
2023-06-17T13:03:43.942Z,34.58
2023-06-17T13:04:44.386Z,35.38
2023-06-17T13:05:43.745Z,35.28
2023-06-17T13:06:43.716Z,34.08
2023-06-17T13:07:43.709Z,33.91